sensor_id;sensor_type;location;lat;lon;timestamp;P1;durP1;ratioP1;P2;durP2;ratioP2
4078;SDS011;2054;47.858;11.156;2023-12-29T03:45:36;1.40;;;1.10;;
4078;SDS011;2054;47.858;11.156;2023-12-29T03:48:03;1.52;;;1.15;;
4078;SDS011;2054;47.858;11.156;2023-12-29T03:50:30;2.55;;;1.30;;
4078;SDS011;2054;47.858;11.156;2023-12-29T03:52:57;1.88;;;1.33;;
4078;SDS011;2054;47.858;11.156;2023-12-29T03:55:24;1.60;;;1.20;;
4078;SDS011;2054;47.858;11.156;2023-12-29T03:57:51;3.25;;;1.50;;
4078;SDS011;2054;47.858;11.156;2023-12-29T04:00:18;1.35;;;1.02;;
4078;SDS011;2054;47.858;11.156;2023-12-29T04:02:46;3.08;;;1.42;;
4078;SDS011;2054;47.858;11.156;2023-12-29T04:05:13;2.55;;;1.35;;
4078;SDS011;2054;47.858;11.156;2023-12-29T04:07:40;4.13;;;1.58;;
4078;SDS011;2054;47.858;11.156;2023-12-29T04:10:09;1.50;;;1.20;;
4078;SDS011;2054;47.858;11.156;2023-12-29T04:12:35;2.38;;;1.10;;
4078;SDS011;2054;47.858;11.156;2023-12-29T04:15:03;1.30;;;1.17;;
4078;SDS011;2054;47.858;11.156;2023-12-29T04:17:30;1.77;;;1.35;;
4078;SDS011;2054;47.858;11.156;2023-12-29T04:19:59;2.60;;;1.85;;
4078;SDS011;2054;47.858;11.156;2023-12-29T04:22:26;3.10;;;1.42;;
4078;SDS011;2054;47.858;11.156;2023-12-29T04:24:53;3.25;;;1.50;;
4078;SDS011;2054;47.858;11.156;2023-12-29T04:27:20;3.53;;;1.80;;
4078;SDS011;2054;47.858;11.156;2023-12-29T04:29:48;2.50;;;1.63;;
4078;SDS011;2054;47.858;11.156;2023-12-29T04:32:15;3.13;;;1.35;;
4078;SDS011;2054;47.858;11.156;2023-12-29T04:34:42;1.92;;;1.50;;
4078;SDS011;2054;47.858;11.156;2023-12-29T04:37:11;2.30;;;1.50;;
4078;SDS011;2054;47.858;11.156;2023-12-29T04:39:38;1.55;;;1.40;;
4078;SDS011;2054;47.858;11.156;2023-12-29T04:42:05;3.97;;;1.40;;
4078;SDS011;2054;47.858;11.156;2023-12-29T04:44:32;2.95;;;1.45;;
4078;SDS011;2054;47.858;11.156;2023-12-29T04:46:59;3.10;;;1.65;;
4078;SDS011;2054;47.858;11.156;2023-12-29T04:49:26;3.60;;;1.90;;
4078;SDS011;2054;47.858;11.156;2023-12-29T04:51:54;1.88;;;1.40;;
4078;SDS011;2054;47.858;11.156;2023-12-29T04:54:23;2.55;;;1.40;;
4078;SDS011;2054;47.858;11.156;2023-12-29T04:56:50;2.72;;;1.63;;
4078;SDS011;2054;47.858;11.156;2023-12-29T04:59:17;4.32;;;1.85;;
4078;SDS011;2054;47.858;11.156;2023-12-29T05:01:44;1.75;;;1.65;;
4078;SDS011;2054;47.858;11.156;2023-12-29T05:04:10;3.35;;;2.00;;
4078;SDS011;2054;47.858;11.156;2023-12-29T05:06:39;5.53;;;1.70;;
4078;SDS011;2054;47.858;11.156;2023-12-29T05:09:06;7.47;;;1.92;;
4078;SDS011;2054;47.858;11.156;2023-12-29T05:11:35;3.90;;;1.83;;
4078;SDS011;2054;47.858;11.156;2023-12-29T05:14:01;2.53;;;1.52;;
4078;SDS011;2054;47.858;11.156;2023-12-29T05:16:28;2.67;;;2.08;;
4078;SDS011;2054;47.858;11.156;2023-12-29T05:18:55;3.55;;;2.15;;
4078;SDS011;2054;47.858;11.156;2023-12-29T05:21:22;4.93;;;1.55;;
4078;SDS011;2054;47.858;11.156;2023-12-29T05:23:51;3.53;;;1.70;;
4078;SDS011;2054;47.858;11.156;2023-12-29T05:26:18;3.33;;;1.80;;
4078;SDS011;2054;47.858;11.156;2023-12-29T05:28:46;4.55;;;1.90;;
4078;SDS011;2054;47.858;11.156;2023-12-29T05:31:13;3.33;;;1.65;;
4078;SDS011;2054;47.858;11.156;2023-12-29T05:33:40;2.08;;;1.40;;
4078;SDS011;2054;47.858;11.156;2023-12-29T05:36:06;2.05;;;1.40;;
4078;SDS011;2054;47.858;11.156;2023-12-29T05:38:34;2.28;;;1.30;;
4078;SDS011;2054;47.858;11.156;2023-12-29T05:41:02;2.30;;;1.52;;
4078;SDS011;2054;47.858;11.156;2023-12-29T05:43:30;3.80;;;1.40;;
4078;SDS011;2054;47.858;11.156;2023-12-29T05:45:59;2.20;;;1.60;;
4078;SDS011;2054;47.858;11.156;2023-12-29T05:48:26;1.90;;;1.40;;
4078;SDS011;2054;47.858;11.156;2023-12-29T05:50:55;1.00;;;0.90;;
4078;SDS011;2054;47.858;11.156;2023-12-29T05:53:22;2.22;;;1.50;;
4078;SDS011;2054;47.858;11.156;2023-12-29T05:55:49;1.75;;;1.30;;
4078;SDS011;2054;47.858;11.156;2023-12-29T05:58:16;1.77;;;1.30;;
4078;SDS011;2054;47.858;11.156;2023-12-29T06:00:43;3.35;;;1.63;;
4078;SDS011;2054;47.858;11.156;2023-12-29T06:03:12;2.92;;;1.30;;
4078;SDS011;2054;47.858;11.156;2023-12-29T06:05:39;2.90;;;1.77;;
4078;SDS011;2054;47.858;11.156;2023-12-29T06:08:06;2.10;;;1.40;;
4078;SDS011;2054;47.858;11.156;2023-12-29T06:10:33;2.50;;;1.50;;
4078;SDS011;2054;47.858;11.156;2023-12-29T06:13:02;2.20;;;1.48;;
4078;SDS011;2054;47.858;11.156;2023-12-29T06:15:29;2.40;;;1.50;;
4078;SDS011;2054;47.858;11.156;2023-12-29T06:17:56;2.67;;;1.90;;
4078;SDS011;2054;47.858;11.156;2023-12-29T06:20:25;4.50;;;1.90;;
4078;SDS011;2054;47.858;11.156;2023-12-29T06:22:52;3.67;;;1.70;;
4078;SDS011;2054;47.858;11.156;2023-12-29T06:25:19;2.63;;;1.77;;
4078;SDS011;2054;47.858;11.156;2023-12-29T06:27:46;2.90;;;1.75;;
4078;SDS011;2054;47.858;11.156;2023-12-29T06:30:13;4.20;;;1.80;;
4078;SDS011;2054;47.858;11.156;2023-12-29T06:32:41;2.58;;;2.30;;
4078;SDS011;2054;47.858;11.156;2023-12-29T06:35:08;3.72;;;2.30;;
4078;SDS011;2054;47.858;11.156;2023-12-29T06:37:37;4.82;;;1.92;;
4078;SDS011;2054;47.858;11.156;2023-12-29T06:40:05;2.33;;;1.90;;
4078;SDS011;2054;47.858;11.156;2023-12-29T06:42:35;2.75;;;1.83;;
4078;SDS011;2054;47.858;11.156;2023-12-29T06:45:03;2.47;;;1.80;;
4078;SDS011;2054;47.858;11.156;2023-12-29T06:47:33;2.65;;;1.75;;
4078;SDS011;2054;47.858;11.156;2023-12-29T06:50:00;2.35;;;1.90;;
4078;SDS011;2054;47.858;11.156;2023-12-29T06:52:27;2.85;;;2.10;;
4078;SDS011;2054;47.858;11.156;2023-12-29T06:55:00;2.33;;;2.10;;
4078;SDS011;2054;47.858;11.156;2023-12-29T06:57:28;3.33;;;2.00;;
4078;SDS011;2054;47.858;11.156;2023-12-29T06:59:55;2.40;;;2.10;;
4078;SDS011;2054;47.858;11.156;2023-12-29T07:02:22;2.72;;;2.10;;
4078;SDS011;2054;47.858;11.156;2023-12-29T07:04:50;2.53;;;2.08;;
4078;SDS011;2054;47.858;11.156;2023-12-29T07:07:17;2.45;;;2.10;;
4078;SDS011;2054;47.858;11.156;2023-12-29T07:09:44;3.03;;;1.80;;
4078;SDS011;2054;47.858;11.156;2023-12-29T07:12:12;2.55;;;2.25;;
4078;SDS011;2054;47.858;11.156;2023-12-29T07:14:40;7.40;;;2.38;;
4078;SDS011;2054;47.858;11.156;2023-12-29T07:17:07;2.97;;;2.10;;
4078;SDS011;2054;47.858;11.156;2023-12-29T07:19:34;3.17;;;2.58;;
4078;SDS011;2054;47.858;11.156;2023-12-29T07:22:03;2.88;;;1.80;;
4078;SDS011;2054;47.858;11.156;2023-12-29T07:24:31;2.72;;;2.00;;
4078;SDS011;2054;47.858;11.156;2023-12-29T07:26:58;2.50;;;1.60;;
4078;SDS011;2054;47.858;11.156;2023-12-29T07:29:27;4.07;;;1.42;;
4078;SDS011;2054;47.858;11.156;2023-12-29T07:31:55;3.88;;;2.67;;
4078;SDS011;2054;47.858;11.156;2023-12-29T07:34:22;3.25;;;1.70;;
4078;SDS011;2054;47.858;11.156;2023-12-29T07:36:49;5.93;;;2.10;;
4078;SDS011;2054;47.858;11.156;2023-12-29T07:39:17;4.32;;;2.20;;
4078;SDS011;2054;47.858;11.156;2023-12-29T07:41:44;3.60;;;1.80;;
4078;SDS011;2054;47.858;11.156;2023-12-29T07:44:13;3.00;;;2.03;;
4078;SDS011;2054;47.858;11.156;2023-12-29T07:46:42;4.10;;;2.53;;
4078;SDS011;2054;47.858;11.156;2023-12-29T07:49:09;3.58;;;2.20;;
4078;SDS011;2054;47.858;11.156;2023-12-29T07:51:38;2.72;;;2.00;;
4078;SDS011;2054;47.858;11.156;2023-12-29T07:54:06;2.38;;;2.17;;
4078;SDS011;2054;47.858;11.156;2023-12-29T07:56:33;8.38;;;2.08;;
4078;SDS011;2054;47.858;11.156;2023-12-29T07:59:03;2.65;;;1.92;;
4078;SDS011;2054;47.858;11.156;2023-12-29T08:01:33;3.08;;;1.90;;
4078;SDS011;2054;47.858;11.156;2023-12-29T08:04:03;2.65;;;1.75;;
4078;SDS011;2054;47.858;11.156;2023-12-29T08:06:30;2.88;;;1.70;;
4078;SDS011;2054;47.858;11.156;2023-12-29T08:08:57;2.00;;;1.80;;
4078;SDS011;2054;47.858;11.156;2023-12-29T08:11:24;3.70;;;1.95;;
4078;SDS011;2054;47.858;11.156;2023-12-29T08:13:51;5.85;;;3.00;;
4078;SDS011;2054;47.858;11.156;2023-12-29T08:16:18;6.95;;;3.65;;
4078;SDS011;2054;47.858;11.156;2023-12-29T08:18:45;4.85;;;3.05;;
4078;SDS011;2054;47.858;11.156;2023-12-29T08:21:17;5.50;;;2.78;;
4078;SDS011;2054;47.858;11.156;2023-12-29T08:23:45;5.03;;;2.47;;
4078;SDS011;2054;47.858;11.156;2023-12-29T08:26:12;2.15;;;1.80;;
4078;SDS011;2054;47.858;11.156;2023-12-29T08:28:39;1.60;;;1.40;;
4078;SDS011;2054;47.858;11.156;2023-12-29T08:31:06;1.33;;;1.20;;
4078;SDS011;2054;47.858;11.156;2023-12-29T08:33:35;2.53;;;1.50;;
4078;SDS011;2054;47.858;11.156;2023-12-29T08:36:02;1.90;;;1.20;;
4078;SDS011;2054;47.858;11.156;2023-12-29T08:38:30;1.65;;;1.20;;
4078;SDS011;2054;47.858;11.156;2023-12-29T08:40:57;1.30;;;1.20;;
4078;SDS011;2054;47.858;11.156;2023-12-29T08:43:25;1.15;;;1.05;;
4078;SDS011;2054;47.858;11.156;2023-12-29T08:45:52;1.92;;;1.20;;
4078;SDS011;2054;47.858;11.156;2023-12-29T08:48:19;3.70;;;1.33;;
4078;SDS011;2054;47.858;11.156;2023-12-29T08:50:45;2.63;;;1.20;;
4078;SDS011;2054;47.858;11.156;2023-12-29T08:53:12;2.20;;;1.50;;
4078;SDS011;2054;47.858;11.156;2023-12-29T08:55:42;1.10;;;1.00;;
4078;SDS011;2054;47.858;11.156;2023-12-29T08:58:09;2.70;;;1.55;;
4078;SDS011;2054;47.858;11.156;2023-12-29T09:00:37;2.90;;;1.60;;
4078;SDS011;2054;47.858;11.156;2023-12-29T09:03:04;1.52;;;1.40;;
4078;SDS011;2054;47.858;11.156;2023-12-29T09:05:31;1.38;;;1.10;;
4078;SDS011;2054;47.858;11.156;2023-12-29T09:08:01;1.60;;;1.17;;
4078;SDS011;2054;47.858;11.156;2023-12-29T09:10:28;1.20;;;1.10;;
4078;SDS011;2054;47.858;11.156;2023-12-29T09:12:57;0.93;;;0.90;;
4078;SDS011;2054;47.858;11.156;2023-12-29T09:15:24;1.33;;;1.23;;
4078;SDS011;2054;47.858;11.156;2023-12-29T09:17:51;2.35;;;1.05;;
4078;SDS011;2054;47.858;11.156;2023-12-29T09:20:18;1.13;;;1.00;;
4078;SDS011;2054;47.858;11.156;2023-12-29T09:22:45;1.58;;;1.10;;
4078;SDS011;2054;47.858;11.156;2023-12-29T09:25:13;1.98;;;1.20;;
4078;SDS011;2054;47.858;11.156;2023-12-29T09:27:40;1.23;;;1.00;;
4078;SDS011;2054;47.858;11.156;2023-12-29T09:30:11;2.45;;;1.23;;
4078;SDS011;2054;47.858;11.156;2023-12-29T09:32:38;2.88;;;1.70;;
4078;SDS011;2054;47.858;11.156;2023-12-29T09:35:05;5.82;;;2.20;;
4078;SDS011;2054;47.858;11.156;2023-12-29T09:37:32;3.15;;;1.60;;
4078;SDS011;2054;47.858;11.156;2023-12-29T09:39:59;3.38;;;1.55;;
4078;SDS011;2054;47.858;11.156;2023-12-29T09:42:27;1.50;;;1.00;;
4078;SDS011;2054;47.858;11.156;2023-12-29T09:44:55;0.90;;;0.90;;
4078;SDS011;2054;47.858;11.156;2023-12-29T09:47:24;0.80;;;0.80;;
4078;SDS011;2054;47.858;11.156;2023-12-29T09:49:51;0.80;;;0.80;;
4078;SDS011;2054;47.858;11.156;2023-12-29T09:52:20;0.70;;;0.70;;
4078;SDS011;2054;47.858;11.156;2023-12-29T09:54:48;1.48;;;0.90;;
4078;SDS011;2054;47.858;11.156;2023-12-29T09:57:16;1.30;;;0.80;;
4078;SDS011;2054;47.858;11.156;2023-12-29T09:59:45;1.17;;;0.77;;
4078;SDS011;2054;47.858;11.156;2023-12-29T10:02:16;1.08;;;0.73;;
4078;SDS011;2054;47.858;11.156;2023-12-29T10:04:45;2.95;;;1.38;;
4078;SDS011;2054;47.858;11.156;2023-12-29T10:07:13;1.30;;;0.93;;
4078;SDS011;2054;47.858;11.156;2023-12-29T10:09:46;1.45;;;1.00;;
4078;SDS011;2054;47.858;11.156;2023-12-29T10:12:16;1.20;;;1.10;;
4078;SDS011;2054;47.858;11.156;2023-12-29T10:14:46;1.67;;;0.80;;
4078;SDS011;2054;47.858;11.156;2023-12-29T10:17:19;1.25;;;0.82;;
4078;SDS011;2054;47.858;11.156;2023-12-29T10:19:57;0.80;;;0.80;;
4078;SDS011;2054;47.858;11.156;2023-12-29T10:22:35;1.00;;;0.75;;
4078;SDS011;2054;47.858;11.156;2023-12-29T10:25:12;1.38;;;1.00;;
4078;SDS011;2054;47.858;11.156;2023-12-29T10:27:39;0.85;;;0.60;;
4078;SDS011;2054;47.858;11.156;2023-12-29T10:30:09;1.35;;;0.80;;
4078;SDS011;2054;47.858;11.156;2023-12-29T10:32:37;0.70;;;0.70;;
4078;SDS011;2054;47.858;11.156;2023-12-29T10:35:09;3.50;;;0.80;;
4078;SDS011;2054;47.858;11.156;2023-12-29T10:37:37;0.88;;;0.80;;
4078;SDS011;2054;47.858;11.156;2023-12-29T10:40:05;1.90;;;0.70;;
4078;SDS011;2054;47.858;11.156;2023-12-29T10:42:34;1.10;;;1.00;;
4078;SDS011;2054;47.858;11.156;2023-12-29T10:45:04;0.70;;;0.70;;
4078;SDS011;2054;47.858;11.156;2023-12-29T10:47:32;0.93;;;0.80;;
4078;SDS011;2054;47.858;11.156;2023-12-29T10:50:00;0.73;;;0.73;;
4078;SDS011;2054;47.858;11.156;2023-12-29T10:52:31;1.00;;;1.00;;
4078;SDS011;2054;47.858;11.156;2023-12-29T10:55:05;1.13;;;0.90;;
4078;SDS011;2054;47.858;11.156;2023-12-29T10:57:33;1.35;;;0.80;;
4078;SDS011;2054;47.858;11.156;2023-12-29T11:00:00;0.70;;;0.70;;
4078;SDS011;2054;47.858;11.156;2023-12-29T11:02:27;0.63;;;0.63;;
4078;SDS011;2054;47.858;11.156;2023-12-29T11:05:01;1.52;;;0.70;;
4078;SDS011;2054;47.858;11.156;2023-12-29T11:07:37;1.15;;;0.80;;
4078;SDS011;2054;47.858;11.156;2023-12-29T11:10:05;1.00;;;0.95;;
4078;SDS011;2054;47.858;11.156;2023-12-29T11:12:34;0.75;;;0.73;;
4078;SDS011;2054;47.858;11.156;2023-12-29T11:15:02;1.05;;;0.90;;
4078;SDS011;2054;47.858;11.156;2023-12-29T11:17:31;0.80;;;0.80;;
4078;SDS011;2054;47.858;11.156;2023-12-29T11:19:59;0.90;;;0.90;;
4078;SDS011;2054;47.858;11.156;2023-12-29T11:22:28;1.45;;;0.70;;
4078;SDS011;2054;47.858;11.156;2023-12-29T11:24:58;1.73;;;0.90;;
4078;SDS011;2054;47.858;11.156;2023-12-29T11:27:26;0.80;;;0.73;;
4078;SDS011;2054;47.858;11.156;2023-12-29T11:29:55;0.93;;;0.70;;
4078;SDS011;2054;47.858;11.156;2023-12-29T11:32:24;0.70;;;0.70;;
4078;SDS011;2054;47.858;11.156;2023-12-29T11:35:05;0.80;;;0.80;;
4078;SDS011;2054;47.858;11.156;2023-12-29T11:37:43;3.65;;;1.13;;
4078;SDS011;2054;47.858;11.156;2023-12-29T11:40:20;1.48;;;0.85;;
4078;SDS011;2054;47.858;11.156;2023-12-29T11:42:56;2.25;;;1.20;;
4078;SDS011;2054;47.858;11.156;2023-12-29T11:45:30;1.48;;;1.08;;
4078;SDS011;2054;47.858;11.156;2023-12-29T11:48:00;0.85;;;0.80;;
4078;SDS011;2054;47.858;11.156;2023-12-29T11:50:28;0.90;;;0.90;;
4078;SDS011;2054;47.858;11.156;2023-12-29T11:52:57;0.90;;;0.90;;
4078;SDS011;2054;47.858;11.156;2023-12-29T11:55:29;0.88;;;0.68;;
4078;SDS011;2054;47.858;11.156;2023-12-29T11:58:00;0.90;;;0.90;;
4078;SDS011;2054;47.858;11.156;2023-12-29T12:00:41;0.82;;;0.70;;
4078;SDS011;2054;47.858;11.156;2023-12-29T12:03:16;1.35;;;0.70;;
4078;SDS011;2054;47.858;11.156;2023-12-29T12:05:49;0.75;;;0.75;;
4078;SDS011;2054;47.858;11.156;2023-12-29T12:08:31;0.75;;;0.75;;
4078;SDS011;2054;47.858;11.156;2023-12-29T12:14:06;4.00;;;2.05;;
4078;SDS011;2054;47.858;11.156;2023-12-29T12:16:49;0.80;;;0.80;;
4078;SDS011;2054;47.858;11.156;2023-12-29T12:19:19;0.68;;;0.68;;
4078;SDS011;2054;47.858;11.156;2023-12-29T12:21:46;1.50;;;0.85;;
4078;SDS011;2054;47.858;11.156;2023-12-29T12:24:15;0.80;;;0.80;;
4078;SDS011;2054;47.858;11.156;2023-12-29T12:26:45;0.70;;;0.70;;
4078;SDS011;2054;47.858;11.156;2023-12-29T12:29:15;0.95;;;0.88;;
4078;SDS011;2054;47.858;11.156;2023-12-29T12:31:56;0.82;;;0.82;;
4078;SDS011;2054;47.858;11.156;2023-12-29T12:34:24;1.00;;;0.90;;
4078;SDS011;2054;47.858;11.156;2023-12-29T12:36:53;0.75;;;0.75;;
4078;SDS011;2054;47.858;11.156;2023-12-29T12:39:24;0.65;;;0.65;;
4078;SDS011;2054;47.858;11.156;2023-12-29T12:42:03;0.73;;;0.60;;
4078;SDS011;2054;47.858;11.156;2023-12-29T12:44:32;1.48;;;0.60;;
4078;SDS011;2054;47.858;11.156;2023-12-29T12:46:59;0.70;;;0.70;;
4078;SDS011;2054;47.858;11.156;2023-12-29T12:49:32;2.72;;;0.77;;
4078;SDS011;2054;47.858;11.156;2023-12-29T12:51:59;0.80;;;0.80;;
4078;SDS011;2054;47.858;11.156;2023-12-29T12:54:27;0.50;;;0.50;;
4078;SDS011;2054;47.858;11.156;2023-12-29T12:56:54;0.65;;;0.65;;
4078;SDS011;2054;47.858;11.156;2023-12-29T12:59:22;0.80;;;0.80;;
4078;SDS011;2054;47.858;11.156;2023-12-29T13:01:50;0.90;;;0.70;;
4078;SDS011;2054;47.858;11.156;2023-12-29T13:04:19;0.80;;;0.80;;
4078;SDS011;2054;47.858;11.156;2023-12-29T13:06:49;0.80;;;0.68;;
4078;SDS011;2054;47.858;11.156;2023-12-29T13:09:17;0.98;;;0.70;;
4078;SDS011;2054;47.858;11.156;2023-12-29T13:11:45;0.80;;;0.50;;
4078;SDS011;2054;47.858;11.156;2023-12-29T13:14:19;0.60;;;0.60;;
4078;SDS011;2054;47.858;11.156;2023-12-29T13:16:47;1.05;;;0.90;;
4078;SDS011;2054;47.858;11.156;2023-12-29T13:19:17;1.10;;;0.98;;
4078;SDS011;2054;47.858;11.156;2023-12-29T13:21:48;1.00;;;0.70;;
4078;SDS011;2054;47.858;11.156;2023-12-29T13:24:16;0.80;;;0.80;;
4078;SDS011;2054;47.858;11.156;2023-12-29T13:26:43;0.80;;;0.70;;
4078;SDS011;2054;47.858;11.156;2023-12-29T13:29:17;1.40;;;1.00;;
4078;SDS011;2054;47.858;11.156;2023-12-29T13:31:45;0.93;;;0.60;;
4078;SDS011;2054;47.858;11.156;2023-12-29T13:34:14;1.10;;;1.00;;
4078;SDS011;2054;47.858;11.156;2023-12-29T13:36:54;2.88;;;0.88;;
4078;SDS011;2054;47.858;11.156;2023-12-29T13:39:35;1.40;;;1.30;;
4078;SDS011;2054;47.858;11.156;2023-12-29T13:42:09;1.13;;;0.80;;
4078;SDS011;2054;47.858;11.156;2023-12-29T13:44:39;0.70;;;0.70;;
4078;SDS011;2054;47.858;11.156;2023-12-29T13:47:07;1.88;;;0.80;;
4078;SDS011;2054;47.858;11.156;2023-12-29T13:49:37;1.75;;;1.42;;
4078;SDS011;2054;47.858;11.156;2023-12-29T13:52:04;1.00;;;1.00;;
4078;SDS011;2054;47.858;11.156;2023-12-29T13:54:40;1.52;;;0.80;;
4078;SDS011;2054;47.858;11.156;2023-12-29T13:57:07;1.20;;;0.77;;
4078;SDS011;2054;47.858;11.156;2023-12-29T13:59:35;0.80;;;0.80;;
4078;SDS011;2054;47.858;11.156;2023-12-29T14:02:03;0.65;;;0.65;;
4078;SDS011;2054;47.858;11.156;2023-12-29T14:04:46;1.05;;;0.90;;
4078;SDS011;2054;47.858;11.156;2023-12-29T14:07:13;0.80;;;0.80;;
4078;SDS011;2054;47.858;11.156;2023-12-29T14:09:41;1.00;;;0.90;;
4078;SDS011;2054;47.858;11.156;2023-12-29T14:12:08;1.73;;;0.98;;
4078;SDS011;2054;47.858;11.156;2023-12-29T14:14:35;0.90;;;0.90;;
4078;SDS011;2054;47.858;11.156;2023-12-29T14:17:02;1.30;;;0.80;;
4078;SDS011;2054;47.858;11.156;2023-12-29T14:19:34;0.80;;;0.80;;
4078;SDS011;2054;47.858;11.156;2023-12-29T14:22:03;1.42;;;0.70;;
4078;SDS011;2054;47.858;11.156;2023-12-29T14:24:30;0.88;;;0.77;;
4078;SDS011;2054;47.858;11.156;2023-12-29T14:26:57;0.60;;;0.60;;
4078;SDS011;2054;47.858;11.156;2023-12-29T14:29:24;0.88;;;0.80;;
4078;SDS011;2054;47.858;11.156;2023-12-29T14:31:51;0.65;;;0.60;;
4078;SDS011;2054;47.858;11.156;2023-12-29T14:34:21;0.70;;;0.70;;
4078;SDS011;2054;47.858;11.156;2023-12-29T14:36:48;0.70;;;0.70;;
4078;SDS011;2054;47.858;11.156;2023-12-29T14:39:18;0.90;;;0.70;;
4078;SDS011;2054;47.858;11.156;2023-12-29T14:41:44;0.85;;;0.70;;
4078;SDS011;2054;47.858;11.156;2023-12-29T14:44:11;0.85;;;0.80;;
4078;SDS011;2054;47.858;11.156;2023-12-29T14:46:39;1.05;;;0.60;;
4078;SDS011;2054;47.858;11.156;2023-12-29T14:49:06;0.88;;;0.63;;
4078;SDS011;2054;47.858;11.156;2023-12-29T14:51:34;1.67;;;1.00;;
4078;SDS011;2054;47.858;11.156;2023-12-29T14:54:01;0.70;;;0.70;;
4078;SDS011;2054;47.858;11.156;2023-12-29T14:56:30;0.73;;;0.70;;
4078;SDS011;2054;47.858;11.156;2023-12-29T14:58:57;2.83;;;0.85;;
4078;SDS011;2054;47.858;11.156;2023-12-29T15:01:24;1.58;;;0.88;;
4078;SDS011;2054;47.858;11.156;2023-12-29T15:03:52;1.17;;;0.85;;
4078;SDS011;2054;47.858;11.156;2023-12-29T15:06:19;1.55;;;1.02;;
4078;SDS011;2054;47.858;11.156;2023-12-29T15:08:48;0.75;;;0.75;;
4078;SDS011;2054;47.858;11.156;2023-12-29T15:11:15;0.70;;;0.70;;
4078;SDS011;2054;47.858;11.156;2023-12-29T15:13:43;0.70;;;0.70;;
4078;SDS011;2054;47.858;11.156;2023-12-29T15:16:10;1.00;;;0.90;;
4078;SDS011;2054;47.858;11.156;2023-12-29T15:18:39;0.98;;;0.90;;
4078;SDS011;2054;47.858;11.156;2023-12-29T15:21:05;0.60;;;0.60;;
4078;SDS011;2054;47.858;11.156;2023-12-29T15:23:32;1.30;;;0.73;;
4078;SDS011;2054;47.858;11.156;2023-12-29T15:26:00;1.65;;;0.90;;
4078;SDS011;2054;47.858;11.156;2023-12-29T15:28:27;0.60;;;0.60;;
4078;SDS011;2054;47.858;11.156;2023-12-29T15:30:56;1.15;;;0.80;;
4078;SDS011;2054;47.858;11.156;2023-12-29T15:33:22;1.30;;;0.90;;
4078;SDS011;2054;47.858;11.156;2023-12-29T15:35:50;0.80;;;0.80;;
4078;SDS011;2054;47.858;11.156;2023-12-29T15:38:17;1.00;;;0.90;;
4078;SDS011;2054;47.858;11.156;2023-12-29T15:40:45;1.35;;;1.25;;
4078;SDS011;2054;47.858;11.156;2023-12-29T15:43:12;0.90;;;0.90;;
4078;SDS011;2054;47.858;11.156;2023-12-29T15:45:39;1.27;;;1.10;;
4078;SDS011;2054;47.858;11.156;2023-12-29T15:48:08;0.70;;;0.70;;
4078;SDS011;2054;47.858;11.156;2023-12-29T15:50:35;1.25;;;1.00;;
4078;SDS011;2054;47.858;11.156;2023-12-29T15:53:02;0.60;;;0.60;;
4078;SDS011;2054;47.858;11.156;2023-12-29T15:55:29;0.70;;;0.70;;
4078;SDS011;2054;47.858;11.156;2023-12-29T15:57:56;3.72;;;0.70;;
4078;SDS011;2054;47.858;11.156;2023-12-29T16:00:24;0.80;;;0.80;;
4078;SDS011;2054;47.858;11.156;2023-12-29T16:02:52;0.80;;;0.75;;
4078;SDS011;2054;47.858;11.156;2023-12-29T16:05:20;0.80;;;0.80;;
4078;SDS011;2054;47.858;11.156;2023-12-29T16:07:47;0.90;;;0.90;;
4078;SDS011;2054;47.858;11.156;2023-12-29T16:10:14;0.60;;;0.60;;
4078;SDS011;2054;47.858;11.156;2023-12-29T16:12:41;1.15;;;0.93;;
4078;SDS011;2054;47.858;11.156;2023-12-29T16:15:08;0.98;;;0.80;;
4078;SDS011;2054;47.858;11.156;2023-12-29T16:17:35;1.65;;;1.00;;
4078;SDS011;2054;47.858;11.156;2023-12-29T16:20:03;0.90;;;0.90;;
4078;SDS011;2054;47.858;11.156;2023-12-29T16:22:32;1.40;;;0.90;;
4078;SDS011;2054;47.858;11.156;2023-12-29T16:24:59;2.30;;;0.80;;
4078;SDS011;2054;47.858;11.156;2023-12-29T16:27:26;0.90;;;0.80;;
4078;SDS011;2054;47.858;11.156;2023-12-29T16:29:53;1.80;;;1.35;;
4078;SDS011;2054;47.858;11.156;2023-12-29T16:32:22;2.08;;;1.48;;
4078;SDS011;2054;47.858;11.156;2023-12-29T16:34:51;1.02;;;0.90;;
4078;SDS011;2054;47.858;11.156;2023-12-29T16:37:18;1.38;;;1.10;;
4078;SDS011;2054;47.858;11.156;2023-12-29T16:39:46;1.10;;;1.00;;
4078;SDS011;2054;47.858;11.156;2023-12-29T16:42:13;1.10;;;1.00;;
4078;SDS011;2054;47.858;11.156;2023-12-29T16:44:42;4.13;;;2.50;;
4078;SDS011;2054;47.858;11.156;2023-12-29T16:47:11;6.05;;;1.30;;
4078;SDS011;2054;47.858;11.156;2023-12-29T16:49:39;1.58;;;1.10;;
4078;SDS011;2054;47.858;11.156;2023-12-29T16:52:06;1.55;;;0.80;;
4078;SDS011;2054;47.858;11.156;2023-12-29T16:54:33;1.13;;;0.88;;
4078;SDS011;2054;47.858;11.156;2023-12-29T16:57:02;1.20;;;1.00;;
4078;SDS011;2054;47.858;11.156;2023-12-29T16:59:29;1.42;;;0.98;;
4078;SDS011;2054;47.858;11.156;2023-12-29T17:01:56;0.80;;;0.70;;
4078;SDS011;2054;47.858;11.156;2023-12-29T17:04:24;1.67;;;1.20;;
4078;SDS011;2054;47.858;11.156;2023-12-29T17:06:51;1.17;;;1.08;;
4078;SDS011;2054;47.858;11.156;2023-12-29T17:09:19;1.67;;;1.13;;
4078;SDS011;2054;47.858;11.156;2023-12-29T17:11:46;3.80;;;2.25;;
4078;SDS011;2054;47.858;11.156;2023-12-29T17:14:15;2.15;;;1.77;;
4078;SDS011;2054;47.858;11.156;2023-12-29T17:16:42;2.38;;;1.60;;
4078;SDS011;2054;47.858;11.156;2023-12-29T17:19:09;3.15;;;2.00;;
4078;SDS011;2054;47.858;11.156;2023-12-29T17:21:36;7.72;;;3.45;;
4078;SDS011;2054;47.858;11.156;2023-12-29T17:24:03;2.00;;;1.48;;
4078;SDS011;2054;47.858;11.156;2023-12-29T17:26:30;1.88;;;1.20;;
4078;SDS011;2054;47.858;11.156;2023-12-29T17:28:57;1.75;;;1.20;;
4078;SDS011;2054;47.858;11.156;2023-12-29T17:31:26;1.75;;;1.40;;
4078;SDS011;2054;47.858;11.156;2023-12-29T17:33:53;1.60;;;1.50;;
4078;SDS011;2054;47.858;11.156;2023-12-29T17:36:20;1.45;;;1.17;;
4078;SDS011;2054;47.858;11.156;2023-12-29T17:38:47;1.23;;;1.00;;
4078;SDS011;2054;47.858;11.156;2023-12-29T17:41:14;2.50;;;1.15;;
4078;SDS011;2054;47.858;11.156;2023-12-29T17:43:42;1.27;;;1.10;;
4078;SDS011;2054;47.858;11.156;2023-12-29T17:46:10;2.47;;;1.15;;
4078;SDS011;2054;47.858;11.156;2023-12-29T17:48:40;2.63;;;1.35;;
4078;SDS011;2054;47.858;11.156;2023-12-29T17:51:07;1.52;;;1.00;;
4078;SDS011;2054;47.858;11.156;2023-12-29T17:53:34;1.17;;;0.85;;
4078;SDS011;2054;47.858;11.156;2023-12-29T17:56:04;1.17;;;1.08;;
4078;SDS011;2054;47.858;11.156;2023-12-29T17:58:31;1.10;;;1.00;;
4078;SDS011;2054;47.858;11.156;2023-12-29T18:01:03;1.17;;;0.98;;
4078;SDS011;2054;47.858;11.156;2023-12-29T18:03:30;1.35;;;1.00;;
4078;SDS011;2054;47.858;11.156;2023-12-29T18:06:03;1.38;;;1.00;;
4078;SDS011;2054;47.858;11.156;2023-12-29T18:08:31;0.80;;;0.80;;
4078;SDS011;2054;47.858;11.156;2023-12-29T18:11:06;0.88;;;0.88;;
4078;SDS011;2054;47.858;11.156;2023-12-29T18:13:33;1.20;;;1.00;;
4078;SDS011;2054;47.858;11.156;2023-12-29T18:16:00;1.10;;;0.80;;
4078;SDS011;2054;47.858;11.156;2023-12-29T18:18:27;0.88;;;0.80;;
4078;SDS011;2054;47.858;11.156;2023-12-29T18:20:54;1.00;;;0.98;;
4078;SDS011;2054;47.858;11.156;2023-12-29T18:23:23;0.80;;;0.80;;
4078;SDS011;2054;47.858;11.156;2023-12-29T18:25:50;1.02;;;0.90;;
4078;SDS011;2054;47.858;11.156;2023-12-29T18:28:18;0.80;;;0.80;;
4078;SDS011;2054;47.858;11.156;2023-12-29T18:30:45;1.08;;;0.98;;
4078;SDS011;2054;47.858;11.156;2023-12-29T18:33:13;1.20;;;0.80;;
4078;SDS011;2054;47.858;11.156;2023-12-29T18:35:41;2.30;;;0.77;;
4078;SDS011;2054;47.858;11.156;2023-12-29T18:38:08;1.00;;;0.93;;
4078;SDS011;2054;47.858;11.156;2023-12-29T18:40:36;1.48;;;1.00;;
4078;SDS011;2054;47.858;11.156;2023-12-29T18:43:04;1.27;;;0.98;;
4078;SDS011;2054;47.858;11.156;2023-12-29T18:45:30;0.70;;;0.70;;
4078;SDS011;2054;47.858;11.156;2023-12-29T18:47:57;1.45;;;0.50;;
4078;SDS011;2054;47.858;11.156;2023-12-29T18:50:25;1.27;;;0.60;;
4078;SDS011;2054;47.858;11.156;2023-12-29T18:52:53;0.60;;;0.60;;
4078;SDS011;2054;47.858;11.156;2023-12-29T18:55:20;0.77;;;0.70;;